Eads, TN (38028)

5:51 PM CDT on August 30, 2015 (GMT -0500)
Shelby County | | Change Station
CLOSE
Current Station
Personal Weather Station
Location: Eads, TN
Elevation: 380 ft
Nearby Weather Stations

Elev 380 ft 35.13 °N, 89.67 °W | Updated 2 seconds ago

Mostly Cloudy
Mostly Cloudy
78.4 °F
Feels Like 81 °F
N
0.0
Wind Variable Wind from SSE
Gusts 0.0 mph

Today
High -- | Low -- °F
--% Chance of Precip.
Yesterday
High -- | Low -- °F
Precip. -- in
6:29 AM 7:28 PM
Full, 98% visible
Pressure 30.01 in
Visibility 10.0 miles
Clouds Few 3000 ft
Scattered Clouds 10000 ft
Mostly Cloudy 25000 ft
Heat Index 81 °F
Dew Point 72 °F
Humidity 81%
Rainfall 0.00 in
Snow Depth Not available.
UV 2 out of 12
Pollen 8.70 out of 12
Air Quality Not available.
Flu Activity Not available.
METAR KOLV 302150Z 09008KT 10SM FEW030 SCT100 BKN250 27/22 A3001
Pressure 30.01 in
Visibility 10.0 miles
Clouds Few 3000 ft
Scattered Clouds 10000 ft
Mostly Cloudy 25000 ft
Heat Index 81 °F
Dew Point 72 °F
Humidity 81%
Rainfall 0.00 in
Snow Depth Not available.
UV 2 out of 12
Pollen 8.70 out of 12
Air Quality Not available.
Flu Activity Not available.
METAR KOLV 302150Z 09008KT 10SM FEW030 SCT100 BKN250 27/22 A3001

10-Day Weather Forecast

×

Almanac

Astronomy

Aug. 30, 2015 Rise Set
Actual Time
Civil Twilight
Nautical Twilight
Astronomical Twilight
Moon
Length of Visible Light
Length of Day
Tomorrow will be .
, % of the Moon is Illuminated

Today's Extremes

State Highs State Lows

Community

WunderPhotos

Upload Photos

1,851,075 photos uploaded!

WunderBlogs® & News

Nearby

Air Quality

  Air Quality AQ Index Pollutant
Not available.

Snow Depth

Station Depth Elevation

Earthquake Activity

City Distance Mag. Time & Date
Minimum magnitude displayed is 2.5.

Coastal Water Temperatures

Place Temperature

Stations

Nearby Weather Stations

Station Location Temp. Windchill Dew Point Humidity Wind Precip. Elev Updated Type